Time;durP1;ratioP1;P1;durP2;ratioP2;P2;SDS_P1;SDS_P2;PMS_P1;PMS_P2;Temp;Humidity;BMP_temperature;BMP_pressure;BME280_temperature;BME280_humidity;BME280_pressure;Samples;Min_cycle;Max_cycle;Signal;HPM_P1;HPM_P2
2022/01/27 00:01:01;;;;;;;5.78;5.22;;;;;;;28.12;57.25;100996.53;5016850;28;65194;-37
2022/01/27 00:03:46;;;;;;;6.45;4.82;;;;;;;28.17;57.60;101004.03;5057494;28;70035;-38
2022/01/27 00:06:18;;;;;;;7.63;5.75;;;;;;;28.18;58.49;100997.59;5074633;27;66714;-39
2022/01/27 00:08:55;;;;;;;16.02;11.23;;;;;;;28.22;59.36;100996.16;5073618;27;70455;-38
2022/01/27 00:11:26;;;;;;;29.38;16.90;;;;;;;28.33;60.70;101003.69;5076571;27;65990;-37
2022/01/27 00:14:00;;;;;;;44.17;21.52;;;;;;;28.35;62.20;101004.31;5078556;27;70202;-38
2022/01/27 00:16:35;;;;;;;42.47;20.55;;;;;;;28.44;62.98;101013.94;5080153;27;65390;-39
2022/01/27 00:19:05;;;;;;;57.42;24.48;;;;;;;28.47;63.39;101023.50;5080376;27;69646;-37
2022/01/27 00:21:36;;;;;;;47.63;25.33;;;;;;;28.54;63.64;101026.25;5083295;27;66245;-37
2022/01/27 00:24:06;;;;;;;55.65;26.63;;;;;;;28.58;64.86;101032.88;5086202;27;70051;-38
2022/01/27 00:26:37;;;;;;;56.05;30.05;;;;;;;28.62;64.88;101035.00;5076086;27;65697;-38
2022/01/27 00:29:08;;;;;;;90.85;52.30;;;;;;;28.67;65.98;101048.72;5078772;27;69347;-38
2022/01/27 00:31:39;;;;;;;89.72;59.25;;;;;;;28.66;66.09;101046.22;5080932;27;64916;-38
2022/01/27 00:34:09;;;;;;;92.55;63.25;;;;;;;28.67;67.16;101048.72;5071543;27;70320;-38
2022/01/27 00:36:40;;;;;;;85.40;52.22;;;;;;;28.67;67.25;101053.28;5082508;27;65123;-37
2022/01/27 00:39:10;;;;;;;59.92;39.40;;;;;;;28.68;67.16;101054.94;5071466;27;70349;-37
2022/01/27 00:41:40;;;;;;;62.70;40.75;;;;;;;28.67;67.23;101061.41;5074784;27;66564;-35
2022/01/27 00:44:11;;;;;;;66.05;41.50;;;;;;;28.71;67.33;101068.03;5076833;27;70276;-35
2022/01/27 00:46:41;;;;;;;54.45;38.67;;;;;;;28.72;67.04;101075.09;5079137;27;65716;-36
2022/01/27 00:49:11;;;;;;;57.95;36.67;;;;;;;28.72;66.94;101072.41;5077927;27;69646;-36
2022/01/27 00:51:45;;;;;;;51.67;34.95;;;;;;;28.71;66.87;101071.56;5043313;27;66314;-36
2022/01/27 00:54:22;;;;;;;48.85;34.20;;;;;;;28.78;66.31;101082.41;5064918;27;69830;-35
2022/01/27 00:57:08;;;;;;;45.17;34.03;;;;;;;28.79;66.26;101083.25;5078051;27;66463;-36
2022/01/27 00:59:53;;;;;;;47.65;33.83;;;;;;;28.77;66.08;101078.03;5073885;27;70448;-36
2022/01/27 01:05:21;;;;;;;45.25;31.50;;;;;;;28.86;65.78;101095.75;5079881;27;70141;-36
2022/01/27 01:07:49;;;;;;;45.03;31.25;;;;;;;28.88;65.66;101100.91;5078744;27;66185;-36
2022/01/27 01:15:52;;;;;;;42.28;29.92;;;;;;;28.91;65.52;101114.84;5076429;27;70101;-36
2022/01/27 01:18:39;;;;;;;36.28;28.73;;;;;;;28.92;65.58;101111.13;5050810;27;65856;-36
2022/01/27 01:35:05;;;;;;;36.58;26.60;;;;;;;28.95;64.67;101128.81;5074658;27;66189;-35
2022/01/27 01:37:39;;;;;;;32.83;26.02;;;;;;;29.04;65.07;101143.00;5074756;27;70059;-35
2022/01/27 01:40:14;;;;;;;35.72;26.05;;;;;;;28.94;64.64;101124.41;5076113;27;65622;-36
2022/01/27 01:42:45;;;;;;;35.50;25.95;;;;;;;29.06;64.47;101138.19;5071911;27;70147;-36
2022/01/27 01:45:18;;;;;;;35.00;26.33;;;;;;;29.03;64.32;101127.78;5079245;27;65994;-37
2022/01/27 01:47:51;;;;;;;32.13;25.58;;;;;;;29.05;64.38;101131.16;5078248;27;70015;-35
2022/01/27 01:50:22;;;;;;;35.05;25.90;;;;;;;29.06;64.78;101138.19;5073980;27;66311;-34
2022/01/27 01:52:52;;;;;;;34.63;25.45;;;;;;;29.11;64.20;101143.84;5076928;27;69329;-35
2022/01/27 01:55:23;;;;;;;34.55;25.67;;;;;;;29.11;64.54;101141.13;5073740;27;65514;-35
2022/01/27 01:57:57;;;;;;;31.63;25.08;;;;;;;29.12;64.04;101138.25;5076584;27;70388;-36
2022/01/27 02:00:28;;;;;;;31.27;25.23;;;;;;;29.14;64.31;101135.31;5074564;27;66515;-36
2022/01/27 02:02:58;;;;;;;35.17;24.55;;;;;;;29.15;64.23;101137.00;5071749;27;70166;-36
2022/01/27 02:05:34;;;;;;;33.30;24.73;;;;;;;29.15;64.09;101142.41;5072412;27;66043;-34
2022/01/27 02:19:30;;;;;;;26.63;23.83;;;;;;;29.05;63.80;101113.06;5073994;27;69247;-36
2022/01/27 02:22:04;;;;;;;29.85;24.58;;;;;;;29.27;63.78;101140.78;5052946;27;65079;-36
2022/01/27 02:24:36;;;;;;;29.13;23.13;;;;;;;29.27;64.26;101146.19;5074436;27;70304;-37
2022/01/27 02:27:06;;;;;;;;;;;;;;;28.96;65.18;101144.78;5086683;27;65946;-35
2022/01/27 02:29:36;;;;;;;26.02;21.90;;;;;;;29.21;64.25;101130.78;5075242;27;69412;-36
2022/01/27 02:32:08;;;;;;;34.55;23.88;;;;;;;29.32;64.11;101142.88;5076640;27;66035;-36
2022/01/27 02:34:38;;;;;;;31.17;22.80;;;;;;;29.33;63.61;101134.56;5078252;27;70593;-36
2022/01/27 02:37:10;;;;;;;29.02;24.55;;;;;;;29.36;63.52;101134.16;5077414;27;66763;-36
2022/01/27 02:39:41;;;;;;;26.08;22.88;;;;;;;29.38;63.86;101136.66;5075659;27;69994;-36
2022/01/27 02:42:17;;;;;;;25.88;22.40;;;;;;;29.40;63.87;101132.72;5072062;27;66420;-36
2022/01/27 02:44:56;;;;;;;25.73;23.02;;;;;;;29.44;63.41;101124.19;5076750;27;70701;-36
2022/01/27 02:47:27;;;;;;;25.95;22.75;;;;;;;29.44;63.28;101140.41;5070365;27;66413;-36
2022/01/27 02:49:57;;;;;;;28.65;22.08;;;;;;;29.46;63.19;101132.94;5057988;27;70001;-36
2022/01/27 02:52:28;;;;;;;24.60;21.88;;;;;;;29.45;63.64;101126.69;5077225;27;65773;-36
2022/01/27 02:54:59;;;;;;;25.92;23.17;;;;;;;29.50;63.16;101128.78;5076271;27;69986;-42
2022/01/27 02:57:29;;;;;;;29.17;21.45;;;;;;;29.43;63.23;101122.53;5074525;27;66397;-35
2022/01/27 03:00:00;;;;;;;26.75;22.15;;;;;;;29.54;63.15;101124.63;5075041;27;70468;-37
2022/01/27 03:02:30;;;;;;;29.65;24.33;;;;;;;29.57;63.09;101129.63;5074550;27;66313;-37
2022/01/27 03:05:02;;;;;;;30.92;22.70;;;;;;;29.56;63.48;101128.81;5057794;27;69068;-38
2022/01/27 03:07:33;;;;;;;26.90;22.90;;;;;;;29.61;63.19;101120.06;5074208;27;66212;-36
2022/01/27 03:10:04;;;;;;;27.83;22.73;;;;;;;29.61;63.09;101120.06;5059196;27;69652;-35
2022/01/27 03:12:37;;;;;;;28.15;22.90;;;;;;;29.64;62.93;101114.25;5054534;27;66332;-36
2022/01/27 03:15:10;;;;;;;24.30;21.65;;;;;;;29.64;62.73;101106.16;5086291;27;70078;-36
2022/01/27 03:17:41;;;;;;;29.98;22.45;;;;;;;29.70;63.21;101108.06;5054830;27;65815;-36
2022/01/27 03:20:12;;;;;;;28.65;24.42;;;;;;;29.67;62.97;101097.66;5049198;27;70518;-36
2022/01/27 03:22:42;;;;;;;27.60;23.60;;;;;;;29.74;63.15;101109.28;5074476;27;66240;-36
2022/01/27 03:25:13;;;;;;;29.60;24.13;;;;;;;29.73;62.67;101085.19;5075973;27;69290;-36
2022/01/27 03:27:47;;;;;;;28.65;23.30;;;;;;;29.78;62.62;101094.34;5073236;27;65438;-36
2022/01/27 03:30:17;;;;;;;24.92;22.35;;;;;;;29.81;62.86;101087.66;5074963;27;70648;-37
2022/01/27 03:32:48;;;;;;;27.33;22.95;;;;;;;29.84;62.48;101090.78;5082472;27;65573;-37
2022/01/27 03:35:18;;;;;;;29.42;23.65;;;;;;;29.86;62.77;101078.91;5080088;27;69704;-37
2022/01/27 03:37:48;;;;;;;30.63;24.58;;;;;;;29.90;62.50;101080.19;5080006;27;66326;-35
2022/01/27 03:40:19;;;;;;;29.20;25.23;;;;;;;29.91;62.35;101076.44;5067468;27;69220;-36
2022/01/27 03:43:03;;;;;;;30.23;24.92;;;;;;;29.93;62.48;101068.94;5087420;27;66408;-35
2022/01/27 03:45:36;;;;;;;29.98;24.45;;;;;;;29.97;62.52;101067.47;5061829;27;70009;-35
2022/01/27 03:48:07;;;;;;;28.27;25.23;;;;;;;30.00;62.54;101064.34;5079405;27;65586;-37
2022/01/27 03:50:38;;;;;;;35.10;25.77;;;;;;;30.00;62.38;101061.63;5090138;27;69104;-36
2022/01/27 03:53:08;;;;;;;29.17;26.08;;;;;;;30.01;62.25;101061.44;5081130;27;66414;-39
2022/01/27 03:55:39;;;;;;;30.20;25.02;;;;;;;30.05;62.14;101061.84;5073803;27;70494;-35
2022/01/27 03:58:10;;;;;;;32.95;26.40;;;;;;;30.09;62.26;101057.69;5065305;28;66073;-35
2022/01/27 04:00:42;;;;;;;32.17;25.52;;;;;;;30.11;61.71;101052.88;5070491;27;71438;-36
2022/01/27 04:03:21;;;;;;;33.40;27.48;;;;;;;30.14;62.03;101049.75;5072984;27;65913;-36
2022/01/27 04:05:55;;;;;;;32.17;26.45;;;;;;;30.16;61.88;101053.09;5068755;27;70115;-36
2022/01/27 04:08:25;;;;;;;35.17;26.15;;;;;;;30.18;61.56;101042.88;5065616;27;66228;-37
2022/01/27 04:10:55;;;;;;;40.03;27.65;;;;;;;30.19;61.75;101035.59;5077804;27;69855;-36
2022/01/27 04:13:26;;;;;;;33.25;27.35;;;;;;;30.20;61.91;101030.00;5077668;27;66447;-34
2022/01/27 04:15:59;;;;;;;30.77;27.10;;;;;;;30.26;61.17;101021.03;5084464;27;69873;-36
2022/01/27 04:18:30;;;;;;;38.40;29.65;;;;;;;30.28;61.78;101023.53;5071483;27;65078;-36
2022/01/27 04:21:00;;;;;;;40.92;27.52;;;;;;;30.30;61.07;101009.78;5081744;27;69849;-36
2022/01/27 04:23:31;;;;;;;32.97;27.60;;;;;;;30.32;61.63;101002.31;5081282;27;66741;-36
2022/01/27 04:26:03;;;;;;;31.85;27.60;;;;;;;30.33;61.03;101001.25;5090123;27;70381;-36
2022/01/27 04:28:36;;;;;;;32.13;27.05;;;;;;;30.35;61.07;100996.47;5066482;27;66793;-35
2022/01/27 04:31:09;;;;;;;31.35;26.75;;;;;;;30.38;61.53;100991.44;5087179;27;69348;-35
2022/01/27 04:33:40;;;;;;;33.17;27.50;;;;;;;30.40;61.41;100985.81;5085418;27;66365;-35
2022/01/27 04:36:20;;;;;;;33.75;27.73;;;;;;;30.41;60.79;100979.34;5078522;27;70372;-35
2022/01/27 04:41:36;;;;;;;33.72;27.25;;;;;;;30.46;61.10;100982.25;5074217;27;70470;-36
2022/01/27 04:44:24;;;;;;;44.47;27.90;;;;;;;30.47;60.64;100970.38;5079133;27;65997;-39
2022/01/27 04:47:07;;;;;;;34.05;27.98;;;;;;;30.48;60.91;100961.22;5083852;27;70036;-36
2022/01/27 04:49:38;;;;;;;36.22;28.45;;;;;;;30.51;60.91;100960.78;5087650;27;65455;-37
2022/01/27 04:52:09;;;;;;;32.00;28.17;;;;;;;30.55;60.84;100955.75;5089368;27;69456;-38
2022/01/27 04:57:28;;;;;;;32.80;27.73;;;;;;;30.54;60.93;100949.53;5072279;27;70441;-37
2022/01/27 04:59:59;;;;;;;32.40;27.13;;;;;;;30.59;60.95;100941.59;5079733;27;66498;-36
2022/01/27 05:05:01;;;;;;;30.52;26.70;;;;;;;30.63;60.31;100934.69;5076981;27;66646;-36
2022/01/27 05:07:56;;;;;;;32.70;27.70;;;;;;;30.65;60.68;100927.16;5093423;27;68725;-35
2022/01/27 05:10:32;;;;;;;30.25;26.95;;;;;;;30.65;60.12;100918.22;5078658;27;66417;-36
2022/01/27 05:13:17;;;;;;;33.75;27.23;;;;;;;30.70;60.51;100908.41;5064088;27;70195;-37
2022/01/27 05:15:48;;;;;;;43.17;28.13;;;;;;;30.70;60.10;100902.97;5092221;27;66750;-39
2022/01/27 05:18:20;;;;;;;36.05;28.48;;;;;;;30.72;60.38;100897.34;5093464;27;70292;-36
2022/01/27 05:20:50;;;;;;;29.58;25.73;;;;;;;30.72;59.96;100894.63;5088127;27;65788;-36
2022/01/27 05:23:21;;;;;;;32.97;26.90;;;;;;;30.75;60.08;100898.78;5085398;27;69975;-36
2022/01/27 05:25:51;;;;;;;31.52;27.35;;;;;;;30.76;60.23;100889.59;5094299;27;66440;-35
2022/01/27 05:28:21;;;;;;;32.50;27.33;;;;;;;30.76;60.05;100884.19;5082491;27;69397;-35
2022/01/27 05:30:53;;;;;;;37.78;26.90;;;;;;;30.77;60.31;100886.69;5078488;27;66547;-36
2022/01/27 05:33:28;;;;;;;31.27;27.45;;;;;;;30.80;60.21;100875.44;5085602;27;70492;-37
2022/01/27 05:36:00;;;;;;;32.65;27.67;;;;;;;30.81;60.24;100870.84;5093341;27;66795;-37
2022/01/27 05:38:32;;;;;;;30.20;26.60;;;;;;;30.81;60.38;100862.72;5088332;27;69871;-36
2022/01/27 05:41:02;;;;;;;33.40;25.58;;;;;;;30.81;59.79;100858.13;5085189;27;65204;-35
2022/01/27 05:43:33;;;;;;;32.90;26.20;;;;;;;30.86;59.43;100852.06;5090044;27;70637;-36
2022/01/27 05:46:05;;;;;;;29.98;26.58;;;;;;;30.73;60.02;100821.31;5089574;27;66241;-36
2022/01/27 05:48:35;;;;;;;31.20;27.15;;;;;;;30.88;59.78;100844.56;5098202;27;70434;-36
2022/01/27 05:51:05;;;;;;;34.95;26.55;;;;;;;30.89;59.47;100832.66;5092109;27;66715;-36
2022/01/27 05:53:37;;;;;;;31.35;27.23;;;;;;;30.92;59.92;100829.50;5084150;27;70031;-36
2022/01/27 05:56:07;;;;;;;31.20;25.58;;;;;;;30.92;59.42;100830.34;5078010;27;66268;-36
2022/01/27 05:58:38;;;;;;;37.72;27.17;;;;;;;30.90;59.85;100818.06;5078104;27;69758;-37
2022/01/27 06:01:08;;;;;;;30.30;26.25;;;;;;;30.97;59.46;100815.31;5069801;27;65950;-36
2022/01/27 06:03:38;;;;;;;28.45;25.45;;;;;;;30.99;59.38;100811.31;5073325;27;69372;-36
2022/01/27 06:06:09;;;;;;;32.35;24.98;;;;;;;31.01;59.15;100806.50;5078751;27;65587;-37
2022/01/27 06:08:39;;;;;;;31.30;25.25;;;;;;;31.04;59.64;100799.81;5081880;27;70295;-36
2022/01/27 06:11:10;;;;;;;29.75;25.48;;;;;;;31.05;59.43;100801.47;5079923;27;65764;-36
2022/01/27 06:13:40;;;;;;;29.83;25.30;;;;;;;31.03;59.35;100793.56;5083878;27;69828;-37
2022/01/27 06:16:12;;;;;;;29.92;26.23;;;;;;;31.08;58.99;100790.19;5072078;27;66110;-35
2022/01/27 06:18:42;;;;;;;29.42;24.52;;;;;;;30.93;58.93;100758.03;5086051;27;69905;-35
2022/01/27 06:21:13;;;;;;;27.17;24.30;;;;;;;31.09;59.30;100779.13;5083010;27;65319;-35
2022/01/27 06:23:44;;;;;;;30.80;24.95;;;;;;;31.12;58.74;100772.41;5087088;27;70391;-36
2022/01/27 06:26:14;;;;;;;29.90;24.63;;;;;;;31.14;58.85;100768.44;5080855;27;66623;-43
2022/01/27 06:28:45;;;;;;;29.10;24.17;;;;;;;31.19;58.83;100769.66;5069460;27;69635;-36
2022/01/27 06:31:15;;;;;;;32.92;24.33;;;;;;;31.15;58.90;100748.44;5079918;27;66051;-36
2022/01/27 06:33:46;;;;;;;33.90;24.33;;;;;;;31.15;58.57;100739.47;5066383;27;69861;-36
2022/01/27 06:36:17;;;;;;;26.38;22.85;;;;;;;31.23;58.54;100743.75;5079382;27;67031;-35
2022/01/27 06:38:48;;;;;;;26.10;22.52;;;;;;;31.24;59.02;100735.41;5074036;27;69695;-35
2022/01/27 06:41:18;;;;;;;29.60;23.30;;;;;;;31.22;58.73;100725.84;5094978;27;67075;-35
2022/01/27 06:43:49;;;;;;;25.08;22.63;;;;;;;31.28;58.27;100730.34;5091014;27;69767;-35
2022/01/27 06:46:19;;;;;;;23.40;21.05;;;;;;;31.30;58.45;100728.25;5093056;27;66090;-36
2022/01/27 06:48:50;;;;;;;24.35;21.80;;;;;;;31.32;58.49;100709.88;5051060;28;69221;-36
2022/01/27 06:51:23;;;;;;;24.08;21.65;;;;;;;31.34;57.97;100713.16;5073541;27;66168;-36
2022/01/27 06:53:53;;;;;;;24.05;21.60;;;;;;;31.35;58.03;100712.97;5070994;27;69798;-37
2022/01/27 06:56:25;;;;;;;22.85;20.60;;;;;;;31.37;58.22;100699.19;5073300;27;66403;-36
2022/01/27 06:58:55;;;;;;;23.08;20.60;;;;;;;31.38;58.16;100692.75;5081446;27;69333;-36
2022/01/27 07:01:25;;;;;;;23.02;20.80;;;;;;;31.37;57.94;100681.06;5077159;27;65243;-36
2022/01/27 07:03:56;;;;;;;22.67;20.27;;;;;;;31.44;58.18;100680.16;5077204;27;70338;-36
2022/01/27 07:06:26;;;;;;;22.92;20.70;;;;;;;31.47;57.67;100685.94;5078467;27;67090;-36
2022/01/27 07:08:57;;;;;;;22.02;19.92;;;;;;;31.48;58.12;100675.91;5079115;27;70355;-36
2022/01/27 07:11:27;;;;;;;21.40;19.25;;;;;;;31.51;57.81;100665.47;5080308;27;65892;-36
2022/01/27 07:13:58;;;;;;;22.00;19.65;;;;;;;31.54;57.67;100670.41;5073830;27;68702;-36
2022/01/27 07:16:29;;;;;;;22.27;19.98;;;;;;;31.55;57.37;100669.34;5063566;27;65624;-36
2022/01/27 07:18:59;;;;;;;22.35;19.98;;;;;;;31.58;57.39;100665.34;5077590;27;71322;-36
2022/01/27 07:21:30;;;;;;;21.35;19.05;;;;;;;31.61;57.70;100671.13;5078316;27;65452;-36
2022/01/27 07:24:01;;;;;;;21.40;19.30;;;;;;;31.64;57.41;100658.19;5070719;27;70080;-36
2022/01/27 07:26:32;;;;;;;20.40;18.50;;;;;;;31.66;57.22;100656.06;5074882;27;65751;-36
2022/01/27 07:29:03;;;;;;;19.73;17.77;;;;;;;31.69;57.16;100658.31;5077830;27;69758;-36
2022/01/27 07:31:33;;;;;;;19.33;17.63;;;;;;;31.73;57.48;100656.78;5080091;27;66212;-36
2022/01/27 07:34:04;;;;;;;20.42;18.52;;;;;;;31.73;57.14;100645.94;5080937;27;70412;-36
2022/01/27 07:36:34;;;;;;;19.70;17.90;;;;;;;31.75;57.41;100638.41;5079274;27;66797;-38
2022/01/27 07:39:05;;;;;;;19.58;17.77;;;;;;;31.80;56.93;100638.53;5077762;27;70168;-36
2022/01/27 07:41:39;;;;;;;19.58;17.83;;;;;;;31.83;56.96;100629.94;5078042;27;65442;-36
2022/01/27 07:44:09;;;;;;;18.70;17.23;;;;;;;31.86;57.04;100629.47;5077026;27;69771;-36
2022/01/27 07:46:39;;;;;;;18.88;17.17;;;;;;;31.89;56.97;100629.00;5082194;27;65432;-36
2022/01/27 07:49:10;;;;;;;19.20;17.42;;;;;;;31.92;56.70;100625.84;5089897;27;69664;-36
2022/01/27 07:51:40;;;;;;;19.08;17.25;;;;;;;31.95;56.30;100630.81;5099225;27;66997;-36
2022/01/27 07:54:10;;;;;;;18.30;16.63;;;;;;;31.97;56.63;100623.25;5080537;27;70204;-37
2022/01/27 07:56:41;;;;;;;18.83;16.65;;;;;;;32.00;56.45;100620.06;5085429;27;66211;-35
2022/01/27 07:59:11;;;;;;;17.95;16.50;;;;;;;32.03;56.39;100614.19;5083545;27;70151;-37
2022/01/27 08:01:41;;;;;;;19.63;17.00;;;;;;;32.06;56.29;100612.88;5081535;27;65606;-36
2022/01/27 08:04:12;;;;;;;16.80;15.48;;;;;;;32.10;56.18;100614.09;5081274;27;69719;-35
2022/01/27 08:06:42;;;;;;;17.23;15.80;;;;;;;32.09;56.08;100600.75;5086103;27;66145;-36
2022/01/27 08:09:13;;;;;;;18.20;16.50;;;;;;;32.16;56.03;100612.31;5083812;27;70389;-37
2022/01/27 08:11:43;;;;;;;17.45;15.85;;;;;;;32.20;56.18;100613.50;5084821;27;65902;-36
2022/01/27 08:14:14;;;;;;;17.20;15.70;;;;;;;32.21;55.90;100617.88;5060370;27;69387;-36
2022/01/27 08:16:45;;;;;;;17.60;15.70;;;;;;;32.27;55.67;100619.63;5082565;27;65801;-36
2022/01/27 08:19:15;;;;;;;16.38;15.15;;;;;;;32.30;55.88;100619.16;5078954;27;69548;-36
2022/01/27 08:21:46;;;;;;;18.40;16.48;;;;;;;32.34;55.63;100620.31;5085578;27;66491;-37
2022/01/27 08:24:18;;;;;;;16.75;15.55;;;;;;;32.37;55.55;100608.16;5099432;27;70053;-37
2022/01/27 08:27:07;;;;;;;16.45;15.18;;;;;;;32.39;55.56;100606.88;5081639;27;65311;-37
2022/01/27 08:30:02;;;;;;;;;;;;;;;32.23;55.79;100611.16;5096006;27;69181;-37
2022/01/27 08:35:17;;;;;;;15.57;14.40;;;;;;;32.50;55.15;100599.81;5099910;27;70436;-36
2022/01/27 08:37:49;;;;;;;16.50;15.10;;;;;;;32.55;55.19;100601.81;5090547;27;66099;-36
2022/01/27 08:40:20;;;;;;;17.17;14.37;;;;;;;32.56;54.98;100611.63;5092505;27;70831;-37
2022/01/27 08:43:07;;;;;;;15.32;14.00;;;;;;;32.62;54.87;100599.78;5097083;27;66158;-36
2022/01/27 08:45:39;;;;;;;16.02;14.38;;;;;;;32.46;54.83;100568.78;5091652;27;69920;-36
2022/01/27 08:48:12;;;;;;;14.35;13.30;;;;;;;32.66;54.65;100606.41;5079091;27;66420;-37
2022/01/27 08:50:49;;;;;;;15.00;13.65;;;;;;;32.69;54.66;100595.06;5083764;27;69120;-37
2022/01/27 08:53:39;;;;;;;13.55;12.35;;;;;;;32.76;54.42;100600.34;5088066;27;66769;-36
2022/01/27 08:56:13;;;;;;;17.40;14.27;;;;;;;32.81;54.54;100614.03;5090713;27;70609;-38
2022/01/27 08:58:43;;;;;;;13.95;13.05;;;;;;;32.84;54.32;100603.50;5065232;27;65732;-37
2022/01/27 09:01:14;;;;;;;14.68;13.52;;;;;;;32.86;54.13;100601.41;5086011;27;69937;-36
2022/01/27 09:03:45;;;;;;;14.43;13.37;;;;;;;32.92;54.09;100614.00;5084698;27;65317;-36
2022/01/27 09:06:18;;;;;;;14.30;13.18;;;;;;;32.90;54.09;100594.44;5076601;27;69743;-36
2022/01/27 09:08:50;;;;;;;13.88;12.77;;;;;;;32.99;54.31;100621.19;5063091;27;66307;-36
2022/01/27 09:11:21;;;;;;;13.80;12.75;;;;;;;33.00;53.98;100617.47;5065312;27;70183;-37
2022/01/27 09:13:57;;;;;;;20.05;13.70;;;;;;;33.04;53.92;100629.47;5086277;27;66126;-37
2022/01/27 09:16:29;;;;;;;14.87;13.47;;;;;;;32.88;53.64;100595.72;5073292;27;70697;-36
2022/01/27 09:19:19;;;;;;;;;;;;;;;32.91;53.59;100631.38;5085693;27;66141;-37
2022/01/27 09:21:50;;;;;;;13.32;12.00;;;;;;;33.12;53.56;100631.81;5096124;27;70718;-37
2022/01/27 09:25:06;;;;;;;16.23;13.05;;;;;;;33.17;53.17;100645.50;5081112;27;66313;-36
2022/01/27 09:27:37;;;;;;;14.77;13.48;;;;;;;33.08;53.65;100625.22;5078850;27;70054;-37
2022/01/27 09:30:08;;;;;;;15.27;13.45;;;;;;;33.21;53.46;100652.13;5066776;27;65571;-37
2022/01/27 09:32:39;;;;;;;14.38;13.07;;;;;;;33.21;53.72;100645.84;5074132;27;70079;-37
2022/01/27 09:35:31;;;;;;;14.07;12.70;;;;;;;33.21;53.70;100645.84;5070056;27;66073;-37
2022/01/27 09:38:02;;;;;;;16.13;13.63;;;;;;;33.21;53.71;100652.13;5062926;27;69208;-36
2022/01/27 09:40:34;;;;;;;14.00;12.60;;;;;;;33.24;53.81;100662.53;5078855;27;66277;-36
2022/01/27 09:43:05;;;;;;;14.90;13.55;;;;;;;33.20;53.63;100658.63;5069240;27;70852;-36
2022/01/27 09:45:39;;;;;;;15.47;13.37;;;;;;;33.26;54.04;100671.25;5083327;27;65479;-37
2022/01/27 09:48:15;;;;;;;15.32;13.85;;;;;;;33.25;53.92;100669.59;5089094;27;70809;-37
2022/01/27 09:53:30;;;;;;;18.25;13.90;;;;;;;33.24;54.21;100673.41;5079670;27;69465;-36
2022/01/27 09:56:00;;;;;;;19.15;13.77;;;;;;;33.25;54.03;100688.63;5057637;27;66018;-36
2022/01/27 09:58:31;;;;;;;14.13;12.75;;;;;;;33.25;54.22;100690.53;5061707;27;70190;-36
2022/01/27 10:01:02;;;;;;;13.98;12.55;;;;;;;33.24;54.39;100692.41;5073566;27;66271;-37
2022/01/27 10:03:32;;;;;;;16.33;13.48;;;;;;;33.22;54.65;100691.81;5075438;27;70663;-36
2022/01/27 10:06:15;;;;;;;15.93;14.43;;;;;;;33.09;54.19;100692.09;5066643;27;67340;-37
2022/01/27 10:08:46;;;;;;;17.48;14.35;;;;;;;33.25;54.40;100717.72;5064165;27;70160;-36
2022/01/27 10:11:19;;;;;;;15.60;13.00;;;;;;;33.21;54.73;100717.38;5078171;27;66715;-37
2022/01/27 10:13:50;;;;;;;18.75;13.40;;;;;;;33.23;54.54;100720.66;5089979;27;70848;-36
2022/01/27 10:16:29;;;;;;;13.88;12.82;;;;;;;33.08;54.54;100706.75;5081276;27;65669;-37
2022/01/27 10:19:07;;;;;;;15.30;13.80;;;;;;;33.22;54.51;100732.59;5062405;27;70649;-35
2022/01/27 10:21:38;;;;;;;14.65;13.20;;;;;;;33.17;54.65;100727.06;5068806;27;65612;-35
2022/01/27 10:24:30;;;;;;;15.20;13.65;;;;;;;33.13;54.78;100731.34;5072452;27;70827;-36
2022/01/27 10:27:35;;;;;;;15.07;13.57;;;;;;;33.12;54.64;100732.38;5081240;27;66082;-36
2022/01/27 10:32:56;;;;;;;15.13;13.73;;;;;;;33.13;54.82;100739.47;5077897;27;66305;-36
2022/01/27 10:35:28;;;;;;;16.13;14.48;;;;;;;33.12;54.75;100740.53;5079030;27;70246;-36
2022/01/27 10:38:09;;;;;;;15.38;13.10;;;;;;;33.11;54.79;100742.44;5093063;27;65983;-36
2022/01/27 10:40:42;;;;;;;19.52;13.68;;;;;;;32.90;54.83;100716.69;5071190;27;69725;-36
2022/01/27 10:43:16;;;;;;;15.50;13.90;;;;;;;32.91;54.80;100722.94;5066856;27;66782;-36
2022/01/27 10:46:16;;;;;;;14.43;13.18;;;;;;;32.86;54.97;100720.94;5078328;27;69988;-37
2022/01/27 10:48:58;;;;;;;21.55;14.57;;;;;;;33.02;55.38;100746.59;5078095;27;66539;-36
2022/01/27 10:51:36;;;;;;;16.42;13.98;;;;;;;33.04;55.69;100759.91;5081953;27;69461;-36
2022/01/27 10:54:23;;;;;;;26.80;18.95;;;;;;;32.99;55.94;100752.47;5078553;27;65567;-38
2022/01/27 10:56:53;;;;;;;29.98;20.70;;;;;;;32.99;56.16;100755.19;5077554;27;70352;-36
2022/01/27 10:59:24;;;;;;;36.25;22.33;;;;;;;32.99;56.11;100762.47;5072196;27;67084;-36
2022/01/27 11:01:55;;;;;;;35.30;22.02;;;;;;;32.93;55.98;100762.41;5075856;27;69850;-35
2022/01/27 11:04:35;;;;;;;28.95;20.52;;;;;;;32.94;55.91;100772.19;5074975;27;66689;-38
2022/01/27 11:07:11;;;;;;;31.27;21.80;;;;;;;32.94;56.70;100774.91;5076952;27;69409;-38
2022/01/27 11:09:44;;;;;;;30.45;21.10;;;;;;;32.71;56.33;100745.88;5056514;28;65056;-36
2022/01/27 11:12:17;;;;;;;35.90;21.08;;;;;;;32.89;56.26;100774.78;5077662;27;70473;-37
2022/01/27 11:14:49;;;;;;;44.58;21.63;;;;;;;32.87;56.37;100776.91;5075491;27;65430;-37
2022/01/27 11:17:20;;;;;;;;;;;;;;;32.66;57.54;100788.38;5072241;27;70068;-37
2022/01/27 11:27:37;;;;;;;37.60;20.90;;;;;;;32.65;56.86;100781.28;5082937;27;69184;-36
2022/01/27 11:30:19;;;;;;;39.70;20.88;;;;;;;32.72;57.16;100801.00;5074911;27;66609;-36
2022/01/27 11:33:10;;;;;;;39.85;21.67;;;;;;;32.71;57.10;100805.63;5079274;27;70098;-38
2022/01/27 11:36:23;;;;;;;43.80;21.70;;;;;;;32.63;57.67;100802.44;5078163;27;66345;-36
2022/01/27 11:38:53;;;;;;;45.40;22.35;;;;;;;32.68;57.49;100821.53;5076980;27;70358;-37
2022/01/27 11:41:38;;;;;;;37.95;20.98;;;;;;;32.59;57.79;100812.09;5078995;27;65736;-38
2022/01/27 11:44:25;;;;;;;34.53;22.20;;;;;;;32.61;57.97;100820.84;5078445;27;70254;-37
2022/01/27 11:47:17;;;;;;;34.45;19.73;;;;;;;32.57;57.93;100825.06;5081530;27;66457;-38
2022/01/27 11:50:17;;;;;;;29.58;19.40;;;;;;;32.57;57.75;100830.50;5070021;27;69381;-37
2022/01/27 11:52:53;;;;;;;28.67;19.45;;;;;;;32.43;57.81;100808.97;5091901;27;66458;-37
2022/01/27 11:55:26;;;;;;;36.03;18.50;;;;;;;32.56;57.92;100837.00;5079040;27;70025;-37
2022/01/27 11:57:58;;;;;;;25.42;19.30;;;;;;;32.47;57.71;100837.31;5079297;27;65715;-37
2022/01/27 12:00:32;;;;;;;37.95;20.05;;;;;;;32.48;57.88;100839.00;5086223;27;70579;-37
2022/01/27 12:03:02;;;;;;;26.70;18.05;;;;;;;32.44;58.31;100836.94;5080388;27;66790;-36
2022/01/27 12:05:39;;;;;;;26.55;18.15;;;;;;;32.42;58.16;100841.75;5079774;27;70885;-38
2022/01/27 12:08:13;;;;;;;23.70;17.73;;;;;;;32.38;58.00;100837.88;5073561;27;65768;-37
2022/01/27 12:10:48;;;;;;;27.27;17.63;;;;;;;32.38;58.32;100848.72;5077834;27;69724;-37
2022/01/27 12:13:41;;;;;;;20.55;17.13;;;;;;;32.34;58.26;100853.78;5069609;27;66363;-37
2022/01/27 12:16:56;;;;;;;32.20;18.92;;;;;;;32.33;58.12;100852.13;5073909;27;70313;-37
2022/01/27 12:19:06;;;;;;;22.13;16.35;;;;;;;32.31;57.96;100853.41;5069214;27;66019;-37
2022/01/27 12:21:45;;;;;;;24.33;16.20;;;;;;;32.21;58.56;100851.28;5062475;28;70891;-37
2022/01/27 12:24:23;;;;;;;27.38;15.50;;;;;;;32.28;58.46;100871.00;5076948;27;66580;-36
2022/01/27 12:27:05;;;;;;;27.67;15.85;;;;;;;32.26;58.34;100868.53;5073487;27;70035;-37
2022/01/27 12:29:46;;;;;;;15.68;13.45;;;;;;;32.17;58.02;100859.03;5068443;27;65257;-37
2022/01/27 12:32:16;;;;;;;20.48;14.82;;;;;;;32.22;58.13;100871.91;5075436;27;69734;-36
2022/01/27 12:34:56;;;;;;;17.20;13.85;;;;;;;32.18;57.74;100862.56;5077244;27;66373;-36
2022/01/27 12:37:39;;;;;;;26.75;15.13;;;;;;;32.15;57.53;100863.03;5074577;27;69614;-39